createdAt,value
2022-10-17T00:01:41.540Z,75.15
2022-10-17T00:04:25.027Z,74.99
2022-10-17T00:07:08.422Z,78.23
2022-10-17T00:09:51.793Z,78.82
2022-10-17T00:12:35.302Z,76.52
2022-10-17T00:15:20.967Z,75.44
2022-10-17T00:18:04.975Z,74.78
2022-10-17T00:20:48.389Z,75.83
2022-10-17T00:23:31.863Z,76.47
2022-10-17T00:26:16.490Z,75.90
2022-10-17T00:29:00.118Z,80.86
2022-10-17T00:31:43.633Z,78.82
2022-10-17T00:34:30.921Z,78.43
2022-10-17T00:37:14.486Z,78.17
2022-10-17T00:39:58.199Z,80.18
2022-10-17T00:42:41.619Z,82.53
2022-10-17T00:45:29.627Z,77.90
2022-10-17T00:48:14.534Z,76.48
2022-10-17T00:50:57.927Z,76.95
2022-10-17T00:53:42.760Z,75.90
2022-10-17T00:56:26.809Z,75.23
2022-10-17T00:59:12.366Z,76.11
2022-10-17T01:02:15.166Z,75.11
2022-10-17T01:04:59.616Z,75.04
2022-10-17T01:07:45.710Z,75.85
2022-10-17T01:10:55.932Z,75.52
2022-10-17T01:14:01.600Z,75.95
2022-10-17T01:17:15.888Z,76.13
2022-10-17T01:20:41.270Z,78.30
2022-10-17T01:24:13.211Z,79.25
2022-10-17T01:27:49.357Z,78.19
2022-10-17T01:30:46.061Z,76.92
2022-10-17T01:34:03.156Z,76.55
2022-10-17T01:36:49.514Z,75.52
2022-10-17T01:39:47.773Z,75.34
2022-10-17T01:42:59.363Z,75.93
2022-10-17T01:46:17.497Z,76.21
2022-10-17T01:49:05.300Z,76.68
2022-10-17T01:52:02.813Z,81.07
2022-10-17T01:54:58.323Z,79.09
2022-10-17T01:57:51.938Z,76.70
2022-10-17T02:00:37.982Z,77.43
2022-10-17T02:03:22.270Z,76.08
2022-10-17T02:06:06.285Z,74.93
2022-10-17T02:08:51.935Z,74.63
2022-10-17T02:11:36.699Z,75.38
2022-10-17T02:15:01.633Z,74.68
2022-10-17T02:18:16.092Z,75.90
2022-10-17T02:21:29.658Z,74.95
2022-10-17T02:25:05.073Z,76.05
2022-10-17T02:28:30.463Z,76.09
2022-10-17T02:31:22.611Z,74.47
2022-10-17T02:34:22.659Z,74.74
2022-10-17T02:37:13.020Z,74.74
2022-10-17T02:40:00.595Z,74.91
2022-10-17T02:42:46.212Z,74.71
2022-10-17T02:45:35.945Z,74.85
2022-10-17T02:48:48.267Z,76.23
2022-10-17T02:52:05.630Z,76.28
2022-10-17T02:54:59.803Z,75.80
2022-10-17T02:58:16.623Z,76.25
2022-10-17T03:01:01.260Z,77.27
2022-10-17T03:03:45.656Z,76.70
2022-10-17T03:06:29.135Z,77.93
2022-10-17T03:09:12.862Z,80.84
2022-10-17T03:11:57.841Z,82.79
2022-10-17T03:14:41.306Z,83.21
2022-10-17T03:17:25.100Z,80.70
2022-10-17T03:20:09.699Z,79.14
2022-10-17T03:22:53.138Z,80.67
2022-10-17T03:25:36.572Z,82.87
2022-10-17T03:28:19.963Z,81.77
2022-10-17T03:31:11.550Z,83.09
2022-10-17T03:33:55.703Z,85.77
2022-10-17T03:36:39.138Z,85.68
2022-10-17T03:39:22.974Z,88.27
2022-10-17T03:42:06.362Z,88.67
2022-10-17T03:44:49.896Z,89.70
2022-10-17T03:47:33.661Z,87.77
2022-10-17T03:50:18.225Z,86.06
2022-10-17T03:53:01.737Z,85.22
2022-10-17T03:55:45.860Z,86.02
2022-10-17T03:58:29.252Z,86.99
2022-10-17T04:01:16.767Z,85.50
2022-10-17T04:04:00.522Z,87.21
2022-10-17T04:06:47.531Z,89.14
2022-10-17T04:09:31.497Z,90.33
2022-10-17T04:12:20.441Z,88.13
2022-10-17T04:15:04.452Z,89.98
2022-10-17T04:17:48.680Z,89.11
2022-10-17T04:20:35.376Z,89.26
2022-10-17T04:23:19.078Z,86.66
2022-10-17T04:26:04.559Z,84.13
2022-10-17T04:28:48.084Z,83.34
2022-10-17T04:31:31.930Z,83.05
2022-10-17T04:34:22.118Z,82.20
2022-10-17T04:37:06.089Z,81.80
2022-10-17T04:39:50.384Z,81.22
2022-10-17T04:42:33.811Z,80.68
2022-10-17T04:45:17.473Z,81.02
2022-10-17T04:48:02.691Z,80.93
2022-10-17T04:51:01.128Z,79.44
2022-10-17T04:53:51.629Z,79.74
2022-10-17T04:56:35.159Z,79.99
2022-10-17T04:59:19.032Z,80.63
2022-10-17T05:02:05.872Z,81.54
2022-10-17T05:04:50.620Z,80.52
2022-10-17T05:07:34.396Z,80.38
2022-10-17T05:10:27.142Z,80.67
2022-10-17T05:13:12.208Z,80.98
2022-10-17T05:16:00.515Z,80.22
2022-10-17T05:18:43.965Z,80.86
2022-10-17T05:21:30.275Z,82.48
2022-10-17T05:24:15.478Z,81.67
2022-10-17T05:26:58.931Z,82.52
2022-10-17T05:29:42.492Z,85.96
2022-10-17T05:32:32.904Z,83.39
2022-10-17T05:35:16.354Z,85.07
2022-10-17T05:38:00.654Z,85.40
2022-10-17T05:40:44.628Z,84.48
2022-10-17T05:43:31.606Z,85.81
2022-10-17T05:46:15.364Z,85.61
2022-10-17T05:48:58.816Z,85.21
2022-10-17T05:51:43.010Z,83.47
2022-10-17T05:54:27.472Z,86.96
2022-10-17T05:57:10.971Z,88.82
2022-10-17T05:59:55.644Z,89.31
2022-10-17T06:02:39.244Z,88.46
2022-10-17T06:05:23.383Z,90.62
2022-10-17T06:08:07.181Z,91.36
2022-10-17T06:10:52.868Z,92.68
2022-10-17T06:13:36.337Z,96.09
2022-10-17T06:16:27.166Z,93.27
2022-10-17T06:19:11.655Z,89.05
2022-10-17T06:21:55.198Z,88.27
2022-10-17T06:24:40.167Z,89.03
2022-10-17T06:27:23.695Z,90.25
2022-10-17T06:30:07.975Z,91.77
2022-10-17T06:32:53.273Z,90.77
2022-10-17T06:35:38.012Z,92.47
2022-10-17T06:38:23.257Z,90.36
2022-10-17T06:41:14.597Z,93.75
2022-10-17T06:43:58.020Z,92.18
2022-10-17T06:47:02.218Z,92.87
2022-10-17T06:49:45.751Z,94.24
2022-10-17T06:52:38.272Z,94.04
2022-10-17T06:55:44.819Z,93.28
2022-10-17T06:58:41.328Z,93.12
2022-10-17T07:01:43.080Z,93.10
2022-10-17T07:04:29.871Z,93.22
2022-10-17T07:07:13.286Z,92.74
2022-10-17T07:09:56.729Z,92.29
2022-10-17T07:12:41.021Z,93.15
2022-10-17T07:15:24.430Z,93.68
2022-10-17T07:18:07.974Z,93.91
2022-10-17T07:20:56.006Z,94.32
2022-10-17T07:23:40.027Z,93.89
2022-10-17T07:26:23.777Z,92.80
2022-10-17T07:29:07.656Z,93.03
2022-10-17T07:32:04.055Z,93.58
2022-10-17T07:34:47.505Z,93.19
2022-10-17T07:37:33.369Z,92.74
2022-10-17T07:40:17.346Z,91.64
2022-10-17T07:43:00.797Z,91.98
2022-10-17T07:45:44.629Z,91.34
2022-10-17T07:48:28.772Z,90.57
2022-10-17T07:51:12.867Z,90.42
2022-10-17T07:53:56.276Z,89.87
2022-10-17T07:56:39.922Z,90.63
2022-10-17T07:59:24.430Z,90.67
2022-10-17T08:02:23.102Z,89.42
2022-10-17T08:05:06.956Z,90.00
2022-10-17T08:07:50.464Z,89.34
2022-10-17T08:10:33.862Z,88.76
2022-10-17T08:13:17.295Z,88.70
2022-10-17T08:16:08.335Z,88.55
2022-10-17T08:18:51.933Z,88.08
2022-10-17T08:21:35.811Z,87.89
2022-10-17T08:24:19.165Z,86.98
2022-10-17T08:27:03.986Z,86.68
2022-10-17T08:29:48.846Z,86.60
2022-10-17T08:32:32.519Z,85.28
2022-10-17T08:35:16.244Z,84.86
2022-10-17T08:38:01.791Z,84.04
2022-10-17T08:40:49.598Z,83.79
2022-10-17T08:44:20.943Z,82.59
2022-10-17T08:47:15.692Z,81.49
2022-10-17T08:50:05.704Z,79.76
2022-10-17T08:53:02.887Z,79.61
2022-10-17T08:55:50.048Z,79.04
2022-10-17T08:58:36.825Z,77.40
2022-10-17T09:02:04.069Z,77.87
2022-10-17T09:05:34.838Z,74.87
2022-10-17T09:08:47.086Z,74.58
2022-10-17T09:12:12.657Z,73.97
2022-10-17T09:15:22.877Z,71.96
2022-10-17T09:18:31.823Z,71.41
2022-10-17T09:21:27.044Z,71.78
2022-10-17T09:25:00.585Z,70.71
2022-10-17T09:27:52.613Z,70.39
2022-10-17T09:30:45.510Z,69.58
2022-10-17T09:33:56.117Z,68.36
2022-10-17T09:36:40.746Z,68.19
2022-10-17T09:39:26.695Z,68.94
2022-10-17T09:42:15.482Z,68.54
2022-10-17T09:45:10.859Z,66.91
2022-10-17T09:48:33.861Z,66.36
2022-10-17T09:51:25.648Z,66.72
2022-10-17T09:54:29.719Z,67.08
2022-10-17T09:57:15.589Z,66.18
2022-10-17T10:00:05.019Z,65.23
2022-10-17T10:03:21.173Z,64.58
2022-10-17T10:06:17.618Z,63.96
2022-10-17T10:09:03.520Z,63.40
2022-10-17T10:11:56.594Z,63.74
2022-10-17T10:14:40.449Z,62.80
2022-10-17T10:17:42.622Z,61.75
2022-10-17T10:20:33.459Z,62.29
2022-10-17T10:23:21.397Z,61.15
2022-10-17T10:26:24.789Z,61.30
2022-10-17T10:29:38.506Z,60.92
2022-10-17T10:32:37.722Z,61.11
2022-10-17T10:35:37.309Z,60.99
2022-10-17T10:38:21.779Z,60.60
2022-10-17T10:41:09.523Z,60.24
2022-10-17T10:43:56.198Z,60.44
2022-10-17T10:46:39.563Z,60.39
2022-10-17T10:49:32.028Z,60.49
2022-10-17T10:52:47.811Z,58.22
2022-10-17T10:55:44.017Z,58.47
2022-10-17T10:59:08.923Z,57.87
2022-10-17T11:02:10.084Z,58.25
2022-10-17T11:05:04.143Z,56.67
2022-10-17T11:08:04.834Z,56.57
2022-10-17T11:11:19.504Z,56.61
2022-10-17T11:14:13.119Z,55.80
2022-10-17T11:17:33.176Z,56.33
2022-10-17T11:20:43.838Z,55.95
2022-10-17T11:24:13.783Z,55.79
2022-10-17T11:27:03.107Z,54.49
2022-10-17T11:29:46.546Z,55.87
2022-10-17T11:32:55.105Z,56.55
2022-10-17T11:35:48.222Z,56.60
2022-10-17T11:38:58.909Z,55.49
2022-10-17T11:41:55.478Z,54.95
2022-10-17T11:44:43.167Z,56.37
2022-10-17T11:47:43.870Z,56.79
2022-10-17T11:53:53.845Z,55.58
2022-10-17T11:56:59.239Z,55.61
2022-10-17T12:00:40.771Z,55.36
2022-10-17T12:04:21.285Z,55.43
2022-10-17T12:07:22.290Z,55.67
2022-10-17T12:10:56.002Z,54.92
2022-10-17T12:13:41.727Z,55.93
2022-10-17T12:16:25.062Z,56.08
2022-10-17T12:19:19.410Z,55.53
2022-10-17T12:22:26.164Z,54.67
2022-10-17T12:25:23.196Z,55.82
2022-10-17T12:28:06.371Z,55.69
2022-10-17T12:31:15.857Z,55.53
2022-10-17T12:34:03.191Z,55.81
2022-10-17T12:36:46.886Z,55.81
2022-10-17T12:39:30.160Z,55.43
2022-10-17T12:42:45.275Z,55.41
2022-10-17T12:45:55.565Z,54.45
2022-10-17T12:48:38.897Z,52.94
2022-10-17T12:51:35.338Z,53.44
2022-10-17T12:54:19.794Z,53.30
2022-10-17T12:57:03.499Z,53.21
2022-10-17T12:59:48.758Z,53.38
2022-10-17T13:02:34.071Z,51.56
2022-10-17T13:05:32.991Z,51.76
2022-10-17T13:08:44.116Z,51.26
2022-10-17T13:11:33.751Z,50.49
2022-10-17T13:14:22.554Z,51.20
2022-10-17T13:17:21.372Z,51.85
2022-10-17T13:20:28.923Z,51.24
2022-10-17T13:23:26.734Z,50.94
2022-10-17T13:26:22.350Z,51.60
2022-10-17T13:29:13.260Z,51.31
2022-10-17T13:32:01.572Z,51.36
2022-10-17T13:34:44.936Z,50.99
2022-10-17T13:37:28.363Z,50.99
2022-10-17T13:40:49.721Z,50.99
2022-10-17T13:43:32.263Z,51.76
2022-10-17T13:46:40.564Z,51.28
2022-10-17T13:49:43.041Z,50.35
2022-10-17T13:52:32.130Z,50.51
2022-10-17T13:55:20.064Z,51.38
2022-10-17T13:58:16.551Z,50.91
2022-10-17T14:01:00.103Z,51.52
2022-10-17T14:03:49.759Z,50.66
2022-10-17T14:06:46.396Z,51.04
2022-10-17T14:09:34.531Z,51.07
2022-10-17T14:12:21.502Z,51.06
2022-10-17T14:15:10.595Z,51.46
2022-10-17T14:18:07.722Z,51.38
2022-10-17T14:24:21.916Z,51.43
2022-10-17T14:27:52.833Z,51.88
2022-10-17T14:30:56.711Z,51.45
2022-10-17T14:33:50.831Z,52.63
2022-10-17T14:36:42.063Z,52.48
2022-10-17T14:39:28.035Z,53.02
2022-10-17T14:42:23.177Z,52.34
2022-10-17T14:45:14.647Z,52.44
2022-10-17T14:48:11.648Z,52.66
2022-10-17T14:51:15.808Z,52.39
2022-10-17T14:54:05.406Z,53.38
2022-10-17T14:56:53.106Z,53.24
2022-10-17T14:59:53.381Z,53.67
2022-10-17T15:02:37.942Z,53.90
2022-10-17T15:05:23.444Z,54.65
2022-10-17T15:08:15.482Z,53.96
2022-10-17T15:10:58.867Z,53.59
2022-10-17T15:13:45.534Z,53.57
2022-10-17T15:16:35.171Z,54.39
2022-10-17T15:19:18.552Z,54.84
2022-10-17T15:22:01.940Z,54.49
2022-10-17T15:24:46.389Z,54.43
2022-10-17T15:27:32.604Z,54.21
2022-10-17T15:30:34.537Z,55.36
2022-10-17T15:33:17.943Z,55.02
2022-10-17T15:36:01.359Z,54.63
2022-10-17T15:38:44.805Z,55.58
2022-10-17T15:41:31.018Z,55.34
2022-10-17T15:44:14.618Z,56.32
2022-10-17T15:46:58.032Z,55.79
2022-10-17T15:49:41.419Z,57.54
2022-10-17T15:52:26.269Z,57.88
2022-10-17T15:55:11.229Z,57.90
2022-10-17T15:57:54.934Z,58.26
2022-10-17T16:00:38.348Z,58.66
2022-10-17T16:06:25.602Z,59.02
2022-10-17T16:09:09.257Z,59.51
2022-10-17T16:11:52.740Z,58.99
2022-10-17T16:14:36.210Z,59.28
2022-10-17T16:17:19.656Z,59.99
2022-10-17T16:20:03.159Z,59.85
2022-10-17T16:22:47.918Z,60.44
2022-10-17T16:25:32.387Z,60.51
2022-10-17T16:28:15.852Z,61.02
2022-10-17T16:30:59.542Z,59.73
2022-10-17T16:33:42.985Z,60.36
2022-10-17T16:36:26.893Z,60.10
2022-10-17T16:39:10.328Z,60.83
2022-10-17T16:41:56.262Z,60.74
2022-10-17T16:44:41.863Z,62.23
2022-10-17T16:47:25.256Z,61.92
2022-10-17T16:50:11.687Z,62.48
2022-10-17T16:52:55.115Z,62.88
2022-10-17T16:55:38.489Z,62.45
2022-10-17T16:58:21.851Z,62.94
2022-10-17T17:01:10.127Z,64.96
2022-10-17T17:03:55.509Z,62.78
2022-10-17T17:06:39.004Z,62.94
2022-10-17T17:09:22.433Z,64.67
2022-10-17T17:12:06.014Z,64.68
2022-10-17T17:14:49.386Z,64.39
2022-10-17T17:17:49.280Z,64.99
2022-10-17T17:20:34.966Z,66.04
2022-10-17T17:23:18.387Z,64.90
2022-10-17T17:26:14.901Z,64.46
2022-10-17T17:29:00.786Z,65.30
2022-10-17T17:31:44.410Z,65.97
2022-10-17T17:34:27.915Z,67.03
2022-10-17T17:37:11.478Z,66.18
2022-10-17T17:39:54.855Z,66.70
2022-10-17T17:42:38.329Z,67.83
2022-10-17T17:45:21.713Z,67.08
2022-10-17T17:48:05.205Z,67.37
2022-10-17T17:50:48.958Z,66.70
2022-10-17T17:53:33.372Z,67.58
2022-10-17T17:56:22.346Z,66.97
2022-10-17T17:59:05.783Z,65.74
2022-10-17T18:01:49.403Z,65.75
2022-10-17T18:04:32.865Z,65.92
2022-10-17T18:07:16.358Z,66.34
2022-10-17T18:10:00.625Z,66.21
2022-10-17T18:12:44.198Z,66.19
2022-10-17T18:15:27.714Z,66.63
2022-10-17T18:18:11.140Z,68.51
2022-10-17T18:20:54.981Z,72.25
2022-10-17T18:23:43.164Z,71.39
2022-10-17T18:26:27.055Z,69.44
2022-10-17T18:29:12.794Z,68.36
2022-10-17T18:31:56.256Z,67.45
2022-10-17T18:34:39.827Z,69.58
2022-10-17T18:37:23.303Z,68.67
2022-10-17T18:40:07.670Z,71.54
2022-10-17T18:42:51.059Z,72.50
2022-10-17T18:45:34.484Z,69.87
2022-10-17T18:48:17.860Z,68.42
2022-10-17T18:51:04.452Z,68.48
2022-10-17T18:53:51.936Z,68.15
2022-10-17T18:56:35.403Z,67.41
2022-10-17T18:59:20.340Z,68.12
2022-10-17T19:02:03.881Z,68.22
2022-10-17T19:07:33.848Z,67.87
2022-10-17T19:10:17.363Z,68.16
2022-10-17T19:13:01.167Z,68.73
2022-10-17T19:15:44.592Z,73.43
2022-10-17T19:18:28.012Z,73.36
2022-10-17T19:21:12.038Z,73.62
2022-10-17T19:24:00.201Z,72.49
2022-10-17T19:26:46.010Z,70.72
2022-10-17T19:29:33.175Z,72.06
2022-10-17T19:32:19.185Z,72.04
2022-10-17T19:35:06.505Z,74.04
2022-10-17T19:37:49.939Z,76.57
2022-10-17T19:40:35.133Z,74.20
2022-10-17T19:43:18.952Z,73.94
2022-10-17T19:46:07.318Z,70.64
2022-10-17T19:48:52.599Z,71.58
2022-10-17T19:51:36.146Z,71.70
2022-10-17T19:54:20.402Z,70.76
2022-10-17T19:57:08.034Z,72.75
2022-10-17T19:59:56.046Z,70.90
2022-10-17T20:02:39.686Z,70.61
2022-10-17T20:05:27.303Z,69.51
2022-10-17T20:08:11.733Z,70.24
2022-10-17T20:10:55.183Z,69.64
2022-10-17T20:13:38.874Z,69.57
2022-10-17T20:16:30.436Z,69.41
2022-10-17T20:19:13.925Z,70.93
2022-10-17T20:21:57.334Z,71.87
2022-10-17T20:24:40.810Z,71.96
2022-10-17T20:27:27.573Z,71.73
2022-10-17T20:30:11.317Z,71.97
2022-10-17T20:32:55.807Z,72.70
2022-10-17T20:38:46.783Z,72.68
2022-10-17T20:41:30.185Z,81.02
2022-10-17T20:44:14.359Z,76.20
2022-10-17T20:47:02.147Z,73.17
2022-10-17T20:49:46.200Z,72.56
2022-10-17T20:52:29.612Z,71.47
2022-10-17T20:55:12.957Z,71.06
2022-10-17T20:57:56.590Z,71.02
2022-10-17T21:00:43.259Z,70.71
2022-10-17T21:03:26.794Z,71.13
2022-10-17T21:06:11.058Z,73.72
2022-10-17T21:08:55.960Z,71.97
2022-10-17T21:11:39.568Z,73.13
2022-10-17T21:14:25.105Z,72.62
2022-10-17T21:17:08.608Z,71.51
2022-10-17T21:19:52.018Z,72.90
2022-10-17T21:22:35.444Z,70.87
2022-10-17T21:25:18.866Z,71.14
2022-10-17T21:28:02.250Z,70.82
2022-10-17T21:30:45.803Z,72.24
2022-10-17T21:33:29.154Z,71.84
2022-10-17T21:36:14.023Z,71.79
2022-10-17T21:38:58.287Z,72.04
2022-10-17T21:41:43.131Z,71.88
2022-10-17T21:44:27.743Z,71.18
2022-10-17T21:47:11.132Z,71.95
2022-10-17T21:49:54.529Z,73.80
2022-10-17T21:52:37.936Z,71.72
2022-10-17T21:55:21.437Z,71.62
2022-10-17T21:58:05.179Z,74.64
2022-10-17T22:00:48.642Z,77.74
2022-10-17T22:03:34.797Z,77.89
2022-10-17T22:09:26.667Z,76.20
2022-10-17T22:12:10.174Z,74.99
2022-10-17T22:14:53.556Z,76.67
2022-10-17T22:17:36.948Z,75.05
2022-10-17T22:20:20.379Z,78.14
2022-10-17T22:23:03.958Z,75.71
2022-10-17T22:25:59.017Z,74.66
2022-10-17T22:28:42.596Z,79.67
2022-10-17T22:31:26.562Z,76.37
2022-10-17T22:34:14.469Z,83.96
2022-10-17T22:36:57.851Z,80.10
2022-10-17T22:39:41.222Z,79.13
2022-10-17T22:42:24.675Z,78.73
2022-10-17T22:45:08.599Z,80.86
2022-10-17T22:47:53.849Z,80.62
2022-10-17T22:50:41.594Z,79.45
2022-10-17T22:53:26.899Z,83.21
2022-10-17T22:56:14.098Z,84.40
2022-10-17T22:58:57.548Z,84.13
2022-10-17T23:01:41.114Z,80.72
2022-10-17T23:04:24.554Z,79.38
2022-10-17T23:07:12.608Z,83.98
2022-10-17T23:09:55.970Z,84.49
2022-10-17T23:12:39.405Z,80.99
2022-10-17T23:15:25.392Z,77.83
2022-10-17T23:18:10.135Z,76.51
2022-10-17T23:20:54.122Z,76.34
2022-10-17T23:23:37.596Z,77.51
2022-10-17T23:26:20.989Z,78.14
2022-10-17T23:29:04.433Z,76.94
2022-10-17T23:31:48.935Z,82.76
2022-10-17T23:34:32.321Z,78.30
2022-10-17T23:37:15.775Z,77.65
2022-10-17T23:39:59.185Z,77.64
2022-10-17T23:42:42.920Z,78.79
2022-10-17T23:45:26.367Z,78.27
2022-10-17T23:48:09.940Z,78.71
2022-10-17T23:50:54.086Z,78.25
2022-10-17T23:53:39.098Z,80.00
2022-10-17T23:56:22.550Z,81.06
2022-10-17T23:59:05.965Z,80.26
